ADDS METAR Data INFO
IDs: Format: Raw Decoded Include TAF

Data at: 2307 UTC 16 Jan 2018

KAKH 162254Z AUTO 18003KT 10SM CLR 07/M04 A3030 RMK AO2 SLP268 T00671039
KAKH 162154Z AUTO 21004KT 10SM CLR 09/M04 A3031 RMK AO2 SLP271 T00941044
KAKH 162054Z AUTO VRB05KT 10SM CLR 10/M04 A3032 RMK AO2 SLP272 T01001044 56017
KAKH 161954Z AUTO 23004KT 10SM CLR 09/M05 A3032 RMK AO2 SLP272 T00941050
KAKH 161854Z AUTO 19008KT 10SM CLR 09/M06 A3032 RMK AO2 SLP275 T00941056
KAKH 161754Z AUTO 20004KT 10SM CLR 08/M07 A3037 RMK AO2 SLP290 T00831067 10083 21061 58028
KAKH 161654Z AUTO 19005KT 10SM CLR 06/M07 A3042 RMK AO2 SLP308 T00611072
KAKH 161554Z AUTO 24004KT 10SM CLR 04/M07 A3045 RMK AO2 SLP320 T00391072
KAKH 161454Z AUTO VRB03KT 10SM CLR 01/M08 A3045 RMK AO2 SLP321 T00111083 53014
KAKH 161354Z AUTO 00000KT 9SM CLR M01/M04 A3043 RMK AO2 SLP314 T10061044
KAKH 161254Z AUTO 00000KT 9SM CLR M06/M08 A3042 RMK AO2 SLP312 T10561083
KAKH 161154Z AUTO 00000KT 9SM CLR M06/M09 A3041 RMK AO2 SLP309 T10611089 11033 21061 55001
KAKH 161054Z AUTO 00000KT 10SM CLR M06/M09 A3040 RMK AO2 SLP304 T10611089
KAKH 160954Z AUTO 00000KT 10SM CLR M06/M09 A3041 RMK AO2 SLP304 T10561089
KAKH 160854Z AUTO 00000KT 10SM CLR M04/M09 A3042 RMK AO2 SLP308 T10441089 58004
KAKH 160754Z AUTO 00000KT 10SM CLR M05/M08 A3043 RMK AO2 SLP312 T10501083
KAKH 160654Z AUTO 00000KT 10SM CLR M04/M08 A3043 RMK AO2 SLP312 T10391083
KAKH 160554Z AUTO 00000KT 10SM CLR M03/M09 A3043 RMK AO2 SLP312 T10331094 11006 21033 58003
KAKH 160454Z AUTO 00000KT 10SM CLR M03/M08 A3044 RMK AO2 SLP317 T10281083 400501072
KAKH 160354Z AUTO 00000KT 10SM CLR M02/M09 A3045 RMK AO2 SLP320 T10221094
KAKH 160254Z AUTO 00000KT 10SM CLR M02/M09 A3044 RMK AO2 SLP316 T10221094 53003
KAKH 160154Z AUTO 00000KT 10SM CLR M02/M09 A3043 RMK AO2 SLP314 T10171089
KAKH 160054Z AUTO 00000KT 9SM CLR M01/M09 A3043 RMK AO2 SLP314 T10111089
KAKH 152354Z AUTO 00000KT 10SM CLR M01/M08 A3043 RMK AO2 SLP314 T10111083 10050 21011 53007
KAKH 152254Z AUTO 00000KT 10SM CLR 02/M10 A3041 RMK AO2 SLP306 T00171100
KAKH 152154Z AUTO 00000KT 10SM CLR 04/M11 A3040 RMK AO2 SLP302 T00391111
KAKH 152054Z AUTO 00000KT 10SM CLR 04/M11 A3041 RMK AO2 SLP304 T00391111 56017
KAKH 151954Z AUTO 29004KT 10SM CLR 04/M11 A3041 RMK AO2 SLP307 T00391111
KAKH 151854Z AUTO 00000KT 10SM CLR 03/M12 A3042 RMK AO2 SLP309 T00281122
KAKH 151754Z AUTO 34003KT 10SM CLR 02/M12 A3046 RMK AO2 SLP322 T00171122 10022 21072 58029
KAKH 151654Z AUTO 35006KT 10SM CLR 01/M13 A3051 RMK AO2 SLP339 T00111128
KAKH 151554Z AUTO VRB06KT 10SM CLR M01/M14 A3053 RMK AO2 SLP348 T10111139
KAKH 151454Z AUTO 04007KT 10SM CLR M03/M13 A3054 RMK AO2 SLP353 T10281133 51010
KAKH 151354Z AUTO 03009KT 10SM CLR M04/M12 A3053 RMK AO2 SLP348 T10441122
KAKH 151254Z AUTO 35004KT 10SM CLR M07/M12 A3053 RMK AO2 SLP350 T10671122
KAKH 151154Z AUTO 01004KT 10SM CLR M07/M12 A3051 RMK AO2 SLP343 T10671122 11044 21067 53007